sensor_id;sensor_type;location;lat;lon;timestamp;temperature;humidity
33988;DHT22;37428;53.580;-1.666;2022-12-10T00:00:28;0.00;93.00
33988;DHT22;37428;53.580;-1.666;2022-12-10T00:03:44;0.00;92.90
33988;DHT22;37428;53.580;-1.666;2022-12-10T00:07:07;0.00;92.90
33988;DHT22;37428;53.580;-1.666;2022-12-10T00:10:09;0.00;92.90
33988;DHT22;37428;53.580;-1.666;2022-12-10T00:13:15;0.00;93.30
33988;DHT22;37428;53.580;-1.666;2022-12-10T00:16:35;-0.10;92.30
33988;DHT22;37428;53.580;-1.666;2022-12-10T00:20:02;-0.10;92.00
33988;DHT22;37428;53.580;-1.666;2022-12-10T00:23:14;0.00;92.50
33988;DHT22;37428;53.580;-1.666;2022-12-10T00:26:18;-0.10;91.80
33988;DHT22;37428;53.580;-1.666;2022-12-10T00:29:20;-0.10;91.90
33988;DHT22;37428;53.580;-1.666;2022-12-10T00:32:24;-0.10;91.80
33988;DHT22;37428;53.580;-1.666;2022-12-10T00:35:36;-0.10;92.10
33988;DHT22;37428;53.580;-1.666;2022-12-10T00:38:48;-0.10;92.10
33988;DHT22;37428;53.580;-1.666;2022-12-10T00:41:55;-0.10;91.90
33988;DHT22;37428;53.580;-1.666;2022-12-10T00:44:58;-0.30;92.20
33988;DHT22;37428;53.580;-1.666;2022-12-10T00:48:00;-0.30;93.00
33988;DHT22;37428;53.580;-1.666;2022-12-10T00:51:06;-0.20;93.20
33988;DHT22;37428;53.580;-1.666;2022-12-10T00:54:24;-0.20;93.30
33988;DHT22;37428;53.580;-1.666;2022-12-10T00:57:26;-0.10;93.80
33988;DHT22;37428;53.580;-1.666;2022-12-10T01:00:29;0.00;94.00
33988;DHT22;37428;53.580;-1.666;2022-12-10T01:03:36;0.00;93.80
33988;DHT22;37428;53.580;-1.666;2022-12-10T01:07:02;0.10;93.80
33988;DHT22;37428;53.580;-1.666;2022-12-10T01:10:06;0.20;94.30
33988;DHT22;37428;53.580;-1.666;2022-12-10T01:13:08;0.20;93.60
33988;DHT22;37428;53.580;-1.666;2022-12-10T01:16:16;0.30;93.50
33988;DHT22;37428;53.580;-1.666;2022-12-10T01:19:19;0.30;93.40
33988;DHT22;37428;53.580;-1.666;2022-12-10T01:22:23;0.30;93.40
33988;DHT22;37428;53.580;-1.666;2022-12-10T01:25:25;0.30;94.00
33988;DHT22;37428;53.580;-1.666;2022-12-10T01:28:29;0.40;94.20
33988;DHT22;37428;53.580;-1.666;2022-12-10T01:31:35;0.50;93.90
33988;DHT22;37428;53.580;-1.666;2022-12-10T01:34:58;0.50;93.80
33988;DHT22;37428;53.580;-1.666;2022-12-10T01:38:18;0.50;93.80
33988;DHT22;37428;53.580;-1.666;2022-12-10T01:45:09;0.50;94.10
33988;DHT22;37428;53.580;-1.666;2022-12-10T01:48:21;0.50;94.30
33988;DHT22;37428;53.580;-1.666;2022-12-10T01:51:38;0.50;94.40
33988;DHT22;37428;53.580;-1.666;2022-12-10T01:54:44;0.50;94.30
33988;DHT22;37428;53.580;-1.666;2022-12-10T01:57:46;0.40;94.30
33988;DHT22;37428;53.580;-1.666;2022-12-10T02:01:05;0.40;94.80
33988;DHT22;37428;53.580;-1.666;2022-12-10T02:04:18;0.40;94.40
33988;DHT22;37428;53.580;-1.666;2022-12-10T02:07:51;0.30;94.30
33988;DHT22;37428;53.580;-1.666;2022-12-10T02:11:17;0.30;94.10
33988;DHT22;37428;53.580;-1.666;2022-12-10T02:14:29;0.30;93.70
33988;DHT22;37428;53.580;-1.666;2022-12-10T02:17:44;0.30;93.90
33988;DHT22;37428;53.580;-1.666;2022-12-10T02:20:54;0.10;93.20
33988;DHT22;37428;53.580;-1.666;2022-12-10T02:24:00;0.10;93.50
33988;DHT22;37428;53.580;-1.666;2022-12-10T02:27:10;0.10;93.60
33988;DHT22;37428;53.580;-1.666;2022-12-10T02:30:17;0.10;93.90
33988;DHT22;37428;53.580;-1.666;2022-12-10T02:33:30;0.10;94.00
33988;DHT22;37428;53.580;-1.666;2022-12-10T02:36:39;0.10;93.70
33988;DHT22;37428;53.580;-1.666;2022-12-10T02:39:49;0.10;93.80
33988;DHT22;37428;53.580;-1.666;2022-12-10T02:43:04;0.10;93.90
33988;DHT22;37428;53.580;-1.666;2022-12-10T02:46:09;0.10;93.70
33988;DHT22;37428;53.580;-1.666;2022-12-10T02:49:13;0.20;93.60
33988;DHT22;37428;53.580;-1.666;2022-12-10T02:52:19;0.30;93.20
33988;DHT22;37428;53.580;-1.666;2022-12-10T02:55:22;0.30;93.20
33988;DHT22;37428;53.580;-1.666;2022-12-10T02:58:51;0.30;92.70
33988;DHT22;37428;53.580;-1.666;2022-12-10T03:02:04;0.30;92.60
33988;DHT22;37428;53.580;-1.666;2022-12-10T03:05:13;0.30;92.30
33988;DHT22;37428;53.580;-1.666;2022-12-10T03:08:26;0.30;92.20
33988;DHT22;37428;53.580;-1.666;2022-12-10T03:11:31;0.20;92.10
33988;DHT22;37428;53.580;-1.666;2022-12-10T03:14:58;0.30;92.40
33988;DHT22;37428;53.580;-1.666;2022-12-10T03:18:41;0.30;92.40
33988;DHT22;37428;53.580;-1.666;2022-12-10T03:21:47;0.30;92.80
33988;DHT22;37428;53.580;-1.666;2022-12-10T03:24:49;0.30;93.50
33988;DHT22;37428;53.580;-1.666;2022-12-10T03:27:54;0.40;93.90
33988;DHT22;37428;53.580;-1.666;2022-12-10T03:30:59;0.40;94.10
33988;DHT22;37428;53.580;-1.666;2022-12-10T03:34:14;0.40;94.30
33988;DHT22;37428;53.580;-1.666;2022-12-10T03:37:29;0.40;94.40
33988;DHT22;37428;53.580;-1.666;2022-12-10T03:40:35;0.40;94.70
33988;DHT22;37428;53.580;-1.666;2022-12-10T03:43:50;0.40;94.70
33988;DHT22;37428;53.580;-1.666;2022-12-10T03:46:52;0.50;94.80
33988;DHT22;37428;53.580;-1.666;2022-12-10T03:50:00;0.50;94.70
33988;DHT22;37428;53.580;-1.666;2022-12-10T03:53:04;0.50;94.60
33988;DHT22;37428;53.580;-1.666;2022-12-10T03:56:07;0.60;93.90
33988;DHT22;37428;53.580;-1.666;2022-12-10T03:59:48;0.60;93.50
33988;DHT22;37428;53.580;-1.666;2022-12-10T04:02:52;0.60;93.20
33988;DHT22;37428;53.580;-1.666;2022-12-10T04:06:01;0.60;92.60
33988;DHT22;37428;53.580;-1.666;2022-12-10T04:09:13;0.60;92.10
33988;DHT22;37428;53.580;-1.666;2022-12-10T04:12:32;0.60;91.70
33988;DHT22;37428;53.580;-1.666;2022-12-10T04:15:38;0.60;91.50
33988;DHT22;37428;53.580;-1.666;2022-12-10T04:19:00;0.50;91.70
33988;DHT22;37428;53.580;-1.666;2022-12-10T04:22:17;0.50;91.90
33988;DHT22;37428;53.580;-1.666;2022-12-10T04:25:43;0.50;92.40
33988;DHT22;37428;53.580;-1.666;2022-12-10T04:29:04;0.50;93.10
33988;DHT22;37428;53.580;-1.666;2022-12-10T04:32:06;0.50;93.60
33988;DHT22;37428;53.580;-1.666;2022-12-10T04:35:16;0.50;93.60
33988;DHT22;37428;53.580;-1.666;2022-12-10T04:38:29;0.50;93.80
33988;DHT22;37428;53.580;-1.666;2022-12-10T04:41:45;0.50;93.50
33988;DHT22;37428;53.580;-1.666;2022-12-10T04:45:02;0.60;93.30
33988;DHT22;37428;53.580;-1.666;2022-12-10T04:48:04;0.60;93.00
33988;DHT22;37428;53.580;-1.666;2022-12-10T04:51:06;0.60;92.90
33988;DHT22;37428;53.580;-1.666;2022-12-10T04:54:13;0.60;92.90
33988;DHT22;37428;53.580;-1.666;2022-12-10T04:57:35;0.70;93.20
33988;DHT22;37428;53.580;-1.666;2022-12-10T05:00:43;0.70;92.80
33988;DHT22;37428;53.580;-1.666;2022-12-10T05:04:02;0.70;92.20
33988;DHT22;37428;53.580;-1.666;2022-12-10T05:07:04;0.70;92.20
33988;DHT22;37428;53.580;-1.666;2022-12-10T05:10:08;0.70;91.70
33988;DHT22;37428;53.580;-1.666;2022-12-10T05:13:23;0.60;92.10
33988;DHT22;37428;53.580;-1.666;2022-12-10T05:16:30;0.60;91.80
33988;DHT22;37428;53.580;-1.666;2022-12-10T05:19:34;0.60;92.20
33988;DHT22;37428;53.580;-1.666;2022-12-10T05:22:39;0.60;92.30
33988;DHT22;37428;53.580;-1.666;2022-12-10T05:26:05;0.60;92.50
33988;DHT22;37428;53.580;-1.666;2022-12-10T05:29:15;0.60;92.20
33988;DHT22;37428;53.580;-1.666;2022-12-10T05:32:18;0.60;92.00
33988;DHT22;37428;53.580;-1.666;2022-12-10T05:35:21;0.60;91.90
33988;DHT22;37428;53.580;-1.666;2022-12-10T05:38:23;0.60;91.70
33988;DHT22;37428;53.580;-1.666;2022-12-10T05:41:28;0.60;91.70
33988;DHT22;37428;53.580;-1.666;2022-12-10T05:44:31;0.70;92.00
33988;DHT22;37428;53.580;-1.666;2022-12-10T05:47:33;0.70;92.00
33988;DHT22;37428;53.580;-1.666;2022-12-10T05:50:45;0.60;91.90
33988;DHT22;37428;53.580;-1.666;2022-12-10T05:54:03;0.60;92.00
33988;DHT22;37428;53.580;-1.666;2022-12-10T05:57:10;0.60;92.40
33988;DHT22;37428;53.580;-1.666;2022-12-10T06:00:13;0.60;92.40
33988;DHT22;37428;53.580;-1.666;2022-12-10T06:03:26;0.70;92.90
33988;DHT22;37428;53.580;-1.666;2022-12-10T06:06:31;0.60;92.30
33988;DHT22;37428;53.580;-1.666;2022-12-10T06:09:33;0.60;92.50
33988;DHT22;37428;53.580;-1.666;2022-12-10T06:12:54;0.60;92.30
33988;DHT22;37428;53.580;-1.666;2022-12-10T06:16:04;0.50;92.20
33988;DHT22;37428;53.580;-1.666;2022-12-10T06:19:06;0.50;92.10
33988;DHT22;37428;53.580;-1.666;2022-12-10T06:22:10;0.50;92.00
33988;DHT22;37428;53.580;-1.666;2022-12-10T06:25:14;0.50;91.90
33988;DHT22;37428;53.580;-1.666;2022-12-10T06:28:22;0.50;91.40
33988;DHT22;37428;53.580;-1.666;2022-12-10T06:31:26;0.40;91.30
33988;DHT22;37428;53.580;-1.666;2022-12-10T06:34:28;0.40;91.10
33988;DHT22;37428;53.580;-1.666;2022-12-10T06:37:44;0.40;91.70
33988;DHT22;37428;53.580;-1.666;2022-12-10T06:44:22;0.40;92.20
33988;DHT22;37428;53.580;-1.666;2022-12-10T06:47:24;0.40;92.10
33988;DHT22;37428;53.580;-1.666;2022-12-10T06:50:26;0.40;92.40
33988;DHT22;37428;53.580;-1.666;2022-12-10T06:53:56;0.50;92.30
33988;DHT22;37428;53.580;-1.666;2022-12-10T06:57:02;0.40;92.10
33988;DHT22;37428;53.580;-1.666;2022-12-10T07:00:33;0.40;92.50
33988;DHT22;37428;53.580;-1.666;2022-12-10T07:03:36;0.40;92.50
33988;DHT22;37428;53.580;-1.666;2022-12-10T07:06:49;0.40;92.90
33988;DHT22;37428;53.580;-1.666;2022-12-10T07:09:51;0.50;93.20
33988;DHT22;37428;53.580;-1.666;2022-12-10T07:16:27;0.50;93.60
33988;DHT22;37428;53.580;-1.666;2022-12-10T07:19:30;0.50;93.60
33988;DHT22;37428;53.580;-1.666;2022-12-10T07:22:40;0.60;94.20
33988;DHT22;37428;53.580;-1.666;2022-12-10T07:25:44;0.60;94.20
33988;DHT22;37428;53.580;-1.666;2022-12-10T07:28:48;0.60;94.10
33988;DHT22;37428;53.580;-1.666;2022-12-10T07:31:52;0.60;94.10
33988;DHT22;37428;53.580;-1.666;2022-12-10T07:35:54;0.60;93.70
33988;DHT22;37428;53.580;-1.666;2022-12-10T07:38:25;0.60;93.50
33988;DHT22;37428;53.580;-1.666;2022-12-10T07:41:27;0.60;93.40
33988;DHT22;37428;53.580;-1.666;2022-12-10T07:44:31;0.60;93.50
33988;DHT22;37428;53.580;-1.666;2022-12-10T07:47:39;0.60;93.60
33988;DHT22;37428;53.580;-1.666;2022-12-10T07:50:41;0.60;93.60
33988;DHT22;37428;53.580;-1.666;2022-12-10T07:53:51;0.60;93.50
33988;DHT22;37428;53.580;-1.666;2022-12-10T07:57:08;0.60;93.20
33988;DHT22;37428;53.580;-1.666;2022-12-10T08:00:22;0.60;92.80
33988;DHT22;37428;53.580;-1.666;2022-12-10T08:03:26;0.60;93.10
33988;DHT22;37428;53.580;-1.666;2022-12-10T08:06:29;0.60;92.90
33988;DHT22;37428;53.580;-1.666;2022-12-10T08:09:31;0.50;92.80
33988;DHT22;37428;53.580;-1.666;2022-12-10T08:12:33;0.50;92.70
33988;DHT22;37428;53.580;-1.666;2022-12-10T08:15:35;0.50;92.70
33988;DHT22;37428;53.580;-1.666;2022-12-10T08:19:02;0.50;92.70
33988;DHT22;37428;53.580;-1.666;2022-12-10T08:22:07;0.50;92.50
33988;DHT22;37428;53.580;-1.666;2022-12-10T08:25:36;0.50;92.60
33988;DHT22;37428;53.580;-1.666;2022-12-10T08:28:38;0.50;92.80
33988;DHT22;37428;53.580;-1.666;2022-12-10T08:31:43;0.50;92.50
33988;DHT22;37428;53.580;-1.666;2022-12-10T08:34:48;0.50;92.40
33988;DHT22;37428;53.580;-1.666;2022-12-10T08:37:56;0.40;92.70
33988;DHT22;37428;53.580;-1.666;2022-12-10T08:41:06;0.40;93.00
33988;DHT22;37428;53.580;-1.666;2022-12-10T08:44:10;0.40;93.10
33988;DHT22;37428;53.580;-1.666;2022-12-10T08:47:20;0.50;92.60
33988;DHT22;37428;53.580;-1.666;2022-12-10T08:50:26;0.50;92.40
33988;DHT22;37428;53.580;-1.666;2022-12-10T08:53:29;0.50;92.30
33988;DHT22;37428;53.580;-1.666;2022-12-10T08:56:31;0.50;92.10
33988;DHT22;37428;53.580;-1.666;2022-12-10T08:59:36;0.60;91.80
33988;DHT22;37428;53.580;-1.666;2022-12-10T09:02:39;0.60;91.40
33988;DHT22;37428;53.580;-1.666;2022-12-10T09:05:43;0.70;91.10
33988;DHT22;37428;53.580;-1.666;2022-12-10T09:08:46;0.70;91.00
33988;DHT22;37428;53.580;-1.666;2022-12-10T09:11:50;0.80;90.70
33988;DHT22;37428;53.580;-1.666;2022-12-10T09:15:00;0.80;90.50
33988;DHT22;37428;53.580;-1.666;2022-12-10T09:18:02;0.90;90.60
33988;DHT22;37428;53.580;-1.666;2022-12-10T09:21:06;0.80;89.90
33988;DHT22;37428;53.580;-1.666;2022-12-10T09:24:10;0.80;89.70
33988;DHT22;37428;53.580;-1.666;2022-12-10T09:27:13;0.90;90.10
33988;DHT22;37428;53.580;-1.666;2022-12-10T09:30:15;0.90;90.00
33988;DHT22;37428;53.580;-1.666;2022-12-10T09:33:17;1.00;89.70
33988;DHT22;37428;53.580;-1.666;2022-12-10T09:36:22;1.00;89.80
33988;DHT22;37428;53.580;-1.666;2022-12-10T09:39:24;1.10;90.20
33988;DHT22;37428;53.580;-1.666;2022-12-10T09:42:38;1.20;89.90
33988;DHT22;37428;53.580;-1.666;2022-12-10T09:45:55;1.40;90.00
33988;DHT22;37428;53.580;-1.666;2022-12-10T09:49:15;1.50;89.60
33988;DHT22;37428;53.580;-1.666;2022-12-10T09:52:23;1.70;89.40
33988;DHT22;37428;53.580;-1.666;2022-12-10T09:55:31;1.90;89.10
33988;DHT22;37428;53.580;-1.666;2022-12-10T09:58:36;2.10;88.60
33988;DHT22;37428;53.580;-1.666;2022-12-10T10:01:39;2.20;88.20
33988;DHT22;37428;53.580;-1.666;2022-12-10T10:04:41;2.30;87.40
33988;DHT22;37428;53.580;-1.666;2022-12-10T10:07:48;2.40;86.90
33988;DHT22;37428;53.580;-1.666;2022-12-10T10:10:51;2.20;85.90
33988;DHT22;37428;53.580;-1.666;2022-12-10T10:14:04;2.00;85.90
33988;DHT22;37428;53.580;-1.666;2022-12-10T10:17:09;1.90;86.50
33988;DHT22;37428;53.580;-1.666;2022-12-10T10:20:22;1.80;87.20
33988;DHT22;37428;53.580;-1.666;2022-12-10T10:23:25;1.80;87.50
33988;DHT22;37428;53.580;-1.666;2022-12-10T10:26:28;1.90;88.30
33988;DHT22;37428;53.580;-1.666;2022-12-10T10:29:30;2.00;87.60
33988;DHT22;37428;53.580;-1.666;2022-12-10T10:32:46;2.10;87.60
33988;DHT22;37428;53.580;-1.666;2022-12-10T10:35:54;2.10;87.00
33988;DHT22;37428;53.580;-1.666;2022-12-10T10:39:07;2.20;86.50
33988;DHT22;37428;53.580;-1.666;2022-12-10T10:42:10;2.20;86.50
33988;DHT22;37428;53.580;-1.666;2022-12-10T10:48:29;2.20;86.40
33988;DHT22;37428;53.580;-1.666;2022-12-10T10:51:31;2.20;86.50
33988;DHT22;37428;53.580;-1.666;2022-12-10T10:54:45;2.20;86.80
33988;DHT22;37428;53.580;-1.666;2022-12-10T10:57:51;2.20;86.00
33988;DHT22;37428;53.580;-1.666;2022-12-10T11:00:57;2.20;85.80
33988;DHT22;37428;53.580;-1.666;2022-12-10T11:03:59;2.20;84.90
33988;DHT22;37428;53.580;-1.666;2022-12-10T11:07:03;2.30;84.50
33988;DHT22;37428;53.580;-1.666;2022-12-10T11:10:22;2.30;84.30
33988;DHT22;37428;53.580;-1.666;2022-12-10T11:13:27;2.30;84.90
33988;DHT22;37428;53.580;-1.666;2022-12-10T11:16:30;2.20;84.80
33988;DHT22;37428;53.580;-1.666;2022-12-10T11:19:32;2.30;85.00
33988;DHT22;37428;53.580;-1.666;2022-12-10T11:22:34;2.30;84.80
33988;DHT22;37428;53.580;-1.666;2022-12-10T11:25:50;2.30;84.90
33988;DHT22;37428;53.580;-1.666;2022-12-10T11:29:05;2.30;85.50
33988;DHT22;37428;53.580;-1.666;2022-12-10T11:32:25;2.30;85.40
33988;DHT22;37428;53.580;-1.666;2022-12-10T11:35:41;2.20;85.50
33988;DHT22;37428;53.580;-1.666;2022-12-10T11:38:52;2.30;85.80
33988;DHT22;37428;53.580;-1.666;2022-12-10T11:42:07;2.20;86.40
33988;DHT22;37428;53.580;-1.666;2022-12-10T11:45:16;2.30;86.60
33988;DHT22;37428;53.580;-1.666;2022-12-10T11:48:30;2.30;86.80
33988;DHT22;37428;53.580;-1.666;2022-12-10T11:51:39;2.30;86.60
33988;DHT22;37428;53.580;-1.666;2022-12-10T11:54:56;2.30;86.80
33988;DHT22;37428;53.580;-1.666;2022-12-10T11:58:16;2.30;86.70
33988;DHT22;37428;53.580;-1.666;2022-12-10T12:01:37;2.30;86.70
33988;DHT22;37428;53.580;-1.666;2022-12-10T12:04:54;2.30;86.80
33988;DHT22;37428;53.580;-1.666;2022-12-10T12:08:12;2.30;87.10
33988;DHT22;37428;53.580;-1.666;2022-12-10T12:11:31;2.30;87.40
33988;DHT22;37428;53.580;-1.666;2022-12-10T12:14:44;2.40;87.40
33988;DHT22;37428;53.580;-1.666;2022-12-10T12:17:51;2.30;87.50
33988;DHT22;37428;53.580;-1.666;2022-12-10T12:20:57;2.40;87.60
33988;DHT22;37428;53.580;-1.666;2022-12-10T12:24:03;2.40;87.30
33988;DHT22;37428;53.580;-1.666;2022-12-10T12:27:13;2.40;87.40
33988;DHT22;37428;53.580;-1.666;2022-12-10T12:30:22;2.40;86.80
33988;DHT22;37428;53.580;-1.666;2022-12-10T12:33:28;2.40;87.10
33988;DHT22;37428;53.580;-1.666;2022-12-10T12:36:45;2.40;87.30
33988;DHT22;37428;53.580;-1.666;2022-12-10T12:39:54;2.40;87.50
33988;DHT22;37428;53.580;-1.666;2022-12-10T12:43:09;2.40;87.60
33988;DHT22;37428;53.580;-1.666;2022-12-10T12:46:18;2.40;87.60
33988;DHT22;37428;53.580;-1.666;2022-12-10T12:49:25;2.40;87.60
33988;DHT22;37428;53.580;-1.666;2022-12-10T12:52:35;2.40;87.30
33988;DHT22;37428;53.580;-1.666;2022-12-10T12:55:47;2.40;87.40
33988;DHT22;37428;53.580;-1.666;2022-12-10T12:59:02;2.30;87.50
33988;DHT22;37428;53.580;-1.666;2022-12-10T13:02:17;2.30;88.00
33988;DHT22;37428;53.580;-1.666;2022-12-10T13:05:25;2.30;87.80
33988;DHT22;37428;53.580;-1.666;2022-12-10T13:08:30;2.20;87.80
33988;DHT22;37428;53.580;-1.666;2022-12-10T13:11:35;2.20;87.90
33988;DHT22;37428;53.580;-1.666;2022-12-10T13:14:55;2.20;88.00
33988;DHT22;37428;53.580;-1.666;2022-12-10T13:18:22;2.20;88.10
33988;DHT22;37428;53.580;-1.666;2022-12-10T13:21:31;2.20;88.00
33988;DHT22;37428;53.580;-1.666;2022-12-10T13:28:22;2.20;88.50
33988;DHT22;37428;53.580;-1.666;2022-12-10T13:31:37;2.10;88.20
33988;DHT22;37428;53.580;-1.666;2022-12-10T13:34:41;2.10;88.00
33988;DHT22;37428;53.580;-1.666;2022-12-10T13:37:56;2.10;88.30
33988;DHT22;37428;53.580;-1.666;2022-12-10T13:41:02;2.10;88.30
33988;DHT22;37428;53.580;-1.666;2022-12-10T13:44:34;2.10;88.20
33988;DHT22;37428;53.580;-1.666;2022-12-10T13:47:43;2.10;88.00
33988;DHT22;37428;53.580;-1.666;2022-12-10T13:50:52;2.10;87.80
33988;DHT22;37428;53.580;-1.666;2022-12-10T13:54:25;2.10;88.30
33988;DHT22;37428;53.580;-1.666;2022-12-10T13:57:46;2.10;87.90
33988;DHT22;37428;53.580;-1.666;2022-12-10T14:00:58;2.10;88.30
33988;DHT22;37428;53.580;-1.666;2022-12-10T14:07:53;2.10;87.90
33988;DHT22;37428;53.580;-1.666;2022-12-10T14:10:59;2.10;88.10
33988;DHT22;37428;53.580;-1.666;2022-12-10T14:14:13;2.10;87.70
33988;DHT22;37428;53.580;-1.666;2022-12-10T14:17:21;2.10;87.80
33988;DHT22;37428;53.580;-1.666;2022-12-10T14:20:49;2.10;87.90
33988;DHT22;37428;53.580;-1.666;2022-12-10T14:24:01;2.10;87.60
33988;DHT22;37428;53.580;-1.666;2022-12-10T14:27:28;2.10;87.70
33988;DHT22;37428;53.580;-1.666;2022-12-10T14:30:32;2.20;88.30
33988;DHT22;37428;53.580;-1.666;2022-12-10T14:33:36;2.20;87.90
33988;DHT22;37428;53.580;-1.666;2022-12-10T14:36:44;2.20;87.50
33988;DHT22;37428;53.580;-1.666;2022-12-10T14:39:50;2.20;87.70
33988;DHT22;37428;53.580;-1.666;2022-12-10T14:42:57;2.20;87.50
33988;DHT22;37428;53.580;-1.666;2022-12-10T14:46:04;2.20;86.60
33988;DHT22;37428;53.580;-1.666;2022-12-10T14:49:11;2.20;86.70
33988;DHT22;37428;53.580;-1.666;2022-12-10T14:52:18;2.20;86.40
33988;DHT22;37428;53.580;-1.666;2022-12-10T14:55:22;2.20;86.40
33988;DHT22;37428;53.580;-1.666;2022-12-10T14:58:31;2.20;86.10
33988;DHT22;37428;53.580;-1.666;2022-12-10T15:01:39;2.20;86.20
33988;DHT22;37428;53.580;-1.666;2022-12-10T15:04:46;2.20;86.20
33988;DHT22;37428;53.580;-1.666;2022-12-10T15:07:53;2.10;86.20
33988;DHT22;37428;53.580;-1.666;2022-12-10T15:11:01;2.10;86.70
33988;DHT22;37428;53.580;-1.666;2022-12-10T15:14:04;2.00;86.80
33988;DHT22;37428;53.580;-1.666;2022-12-10T15:17:38;1.90;86.90
33988;DHT22;37428;53.580;-1.666;2022-12-10T15:20:46;1.90;87.20
33988;DHT22;37428;53.580;-1.666;2022-12-10T15:23:50;1.90;87.20
33988;DHT22;37428;53.580;-1.666;2022-12-10T15:26:54;1.80;87.30
33988;DHT22;37428;53.580;-1.666;2022-12-10T15:29:56;1.80;87.30
33988;DHT22;37428;53.580;-1.666;2022-12-10T15:32:59;1.80;87.70
33988;DHT22;37428;53.580;-1.666;2022-12-10T15:36:02;1.80;87.80
33988;DHT22;37428;53.580;-1.666;2022-12-10T15:39:13;1.80;88.00
33988;DHT22;37428;53.580;-1.666;2022-12-10T15:42:37;1.80;87.80
33988;DHT22;37428;53.580;-1.666;2022-12-10T15:45:42;1.90;87.90
33988;DHT22;37428;53.580;-1.666;2022-12-10T15:48:50;1.80;87.60
33988;DHT22;37428;53.580;-1.666;2022-12-10T15:51:53;1.80;87.40
33988;DHT22;37428;53.580;-1.666;2022-12-10T15:55:13;1.80;87.50
33988;DHT22;37428;53.580;-1.666;2022-12-10T15:58:18;1.80;87.70
33988;DHT22;37428;53.580;-1.666;2022-12-10T16:01:20;1.80;87.30
33988;DHT22;37428;53.580;-1.666;2022-12-10T16:04:28;1.70;87.60
33988;DHT22;37428;53.580;-1.666;2022-12-10T16:07:40;1.70;87.70
33988;DHT22;37428;53.580;-1.666;2022-12-10T16:10:45;1.70;87.50
33988;DHT22;37428;53.580;-1.666;2022-12-10T16:13:53;1.70;88.30
33988;DHT22;37428;53.580;-1.666;2022-12-10T16:16:56;1.70;88.10
33988;DHT22;37428;53.580;-1.666;2022-12-10T16:19:59;1.70;87.90
33988;DHT22;37428;53.580;-1.666;2022-12-10T16:23:07;1.70;88.30
33988;DHT22;37428;53.580;-1.666;2022-12-10T16:26:14;1.70;88.20
33988;DHT22;37428;53.580;-1.666;2022-12-10T16:29:19;1.70;88.40
33988;DHT22;37428;53.580;-1.666;2022-12-10T16:32:22;1.70;88.40
33988;DHT22;37428;53.580;-1.666;2022-12-10T16:35:27;1.60;88.40
33988;DHT22;37428;53.580;-1.666;2022-12-10T16:38:30;1.60;88.30
33988;DHT22;37428;53.580;-1.666;2022-12-10T16:41:32;1.60;88.20
33988;DHT22;37428;53.580;-1.666;2022-12-10T16:44:37;1.50;88.50
33988;DHT22;37428;53.580;-1.666;2022-12-10T16:47:47;1.50;88.60
33988;DHT22;37428;53.580;-1.666;2022-12-10T16:50:59;1.40;88.80
33988;DHT22;37428;53.580;-1.666;2022-12-10T16:54:08;1.40;89.10
33988;DHT22;37428;53.580;-1.666;2022-12-10T16:57:14;1.40;89.10
33988;DHT22;37428;53.580;-1.666;2022-12-10T17:00:23;1.50;89.30
33988;DHT22;37428;53.580;-1.666;2022-12-10T17:03:31;1.50;89.10
33988;DHT22;37428;53.580;-1.666;2022-12-10T17:06:33;1.40;88.90
33988;DHT22;37428;53.580;-1.666;2022-12-10T17:09:37;1.40;89.10
33988;DHT22;37428;53.580;-1.666;2022-12-10T17:12:40;1.40;89.30
33988;DHT22;37428;53.580;-1.666;2022-12-10T17:15:44;1.40;89.40
33988;DHT22;37428;53.580;-1.666;2022-12-10T17:18:47;1.40;89.60
33988;DHT22;37428;53.580;-1.666;2022-12-10T17:21:53;1.50;89.50
33988;DHT22;37428;53.580;-1.666;2022-12-10T17:24:55;1.50;89.60
33988;DHT22;37428;53.580;-1.666;2022-12-10T17:27:58;1.60;89.50
33988;DHT22;37428;53.580;-1.666;2022-12-10T17:31:01;1.60;89.30
33988;DHT22;37428;53.580;-1.666;2022-12-10T17:34:10;1.60;89.20
33988;DHT22;37428;53.580;-1.666;2022-12-10T17:37:15;1.60;89.00
33988;DHT22;37428;53.580;-1.666;2022-12-10T17:40:27;1.60;88.60
33988;DHT22;37428;53.580;-1.666;2022-12-10T17:43:39;1.50;88.80
33988;DHT22;37428;53.580;-1.666;2022-12-10T17:46:51;1.40;88.50
33988;DHT22;37428;53.580;-1.666;2022-12-10T17:49:53;1.40;89.30
33988;DHT22;37428;53.580;-1.666;2022-12-10T17:52:56;1.30;89.30
33988;DHT22;37428;53.580;-1.666;2022-12-10T17:55:59;1.40;89.70
33988;DHT22;37428;53.580;-1.666;2022-12-10T17:59:01;1.40;89.70
33988;DHT22;37428;53.580;-1.666;2022-12-10T18:02:08;1.50;89.90
33988;DHT22;37428;53.580;-1.666;2022-12-10T18:05:11;1.50;89.70
33988;DHT22;37428;53.580;-1.666;2022-12-10T18:08:14;1.50;89.30
33988;DHT22;37428;53.580;-1.666;2022-12-10T18:11:20;1.50;89.10
33988;DHT22;37428;53.580;-1.666;2022-12-10T18:14:24;1.50;89.10
33988;DHT22;37428;53.580;-1.666;2022-12-10T18:17:28;1.40;89.30
33988;DHT22;37428;53.580;-1.666;2022-12-10T18:20:31;1.40;89.60
33988;DHT22;37428;53.580;-1.666;2022-12-10T18:23:36;1.30;89.70
33988;DHT22;37428;53.580;-1.666;2022-12-10T18:26:39;1.30;90.00
33988;DHT22;37428;53.580;-1.666;2022-12-10T18:29:41;1.30;90.10
33988;DHT22;37428;53.580;-1.666;2022-12-10T18:32:44;1.40;90.20
33988;DHT22;37428;53.580;-1.666;2022-12-10T18:35:47;1.40;90.30
33988;DHT22;37428;53.580;-1.666;2022-12-10T18:38:56;1.30;90.10
33988;DHT22;37428;53.580;-1.666;2022-12-10T18:42:03;1.30;90.30
33988;DHT22;37428;53.580;-1.666;2022-12-10T18:45:13;1.30;90.40
33988;DHT22;37428;53.580;-1.666;2022-12-10T18:48:17;1.30;90.50
33988;DHT22;37428;53.580;-1.666;2022-12-10T18:51:20;1.30;90.70
33988;DHT22;37428;53.580;-1.666;2022-12-10T18:54:25;1.30;90.50
33988;DHT22;37428;53.580;-1.666;2022-12-10T18:57:32;1.20;90.60
33988;DHT22;37428;53.580;-1.666;2022-12-10T19:00:35;1.20;90.40
33988;DHT22;37428;53.580;-1.666;2022-12-10T19:03:52;1.20;90.50
33988;DHT22;37428;53.580;-1.666;2022-12-10T19:06:54;1.20;90.50
33988;DHT22;37428;53.580;-1.666;2022-12-10T19:09:57;1.20;90.60
33988;DHT22;37428;53.580;-1.666;2022-12-10T19:12:59;1.30;90.90
33988;DHT22;37428;53.580;-1.666;2022-12-10T19:16:20;1.30;90.80
33988;DHT22;37428;53.580;-1.666;2022-12-10T19:19:28;1.30;90.10
33988;DHT22;37428;53.580;-1.666;2022-12-10T19:23:01;1.30;90.10
33988;DHT22;37428;53.580;-1.666;2022-12-10T19:26:16;1.30;90.10
33988;DHT22;37428;53.580;-1.666;2022-12-10T19:29:24;1.30;90.00
33988;DHT22;37428;53.580;-1.666;2022-12-10T19:32:31;1.30;89.70
33988;DHT22;37428;53.580;-1.666;2022-12-10T19:35:44;1.30;89.90
33988;DHT22;37428;53.580;-1.666;2022-12-10T19:38:58;1.30;90.30
33988;DHT22;37428;53.580;-1.666;2022-12-10T19:42:01;1.30;90.30
33988;DHT22;37428;53.580;-1.666;2022-12-10T19:45:04;1.30;90.10
33988;DHT22;37428;53.580;-1.666;2022-12-10T19:48:17;1.20;89.80
33988;DHT22;37428;53.580;-1.666;2022-12-10T19:51:22;1.20;90.10
33988;DHT22;37428;53.580;-1.666;2022-12-10T19:54:30;1.20;89.80
33988;DHT22;37428;53.580;-1.666;2022-12-10T19:57:32;1.30;90.30
33988;DHT22;37428;53.580;-1.666;2022-12-10T20:00:46;1.20;90.00
33988;DHT22;37428;53.580;-1.666;2022-12-10T20:03:49;1.30;90.20
33988;DHT22;37428;53.580;-1.666;2022-12-10T20:06:52;1.20;89.80
33988;DHT22;37428;53.580;-1.666;2022-12-10T20:10:10;1.20;89.90
33988;DHT22;37428;53.580;-1.666;2022-12-10T20:13:16;1.20;89.70